Main page
METAR-TAF:

METAR-TAF

Airports :

Ankara Esenboğa, Turkey

Esenboğa International Airport

latitude: 40-07N, longitude: 032-59E, elevation: 953 m

Current weather observation

The report was made 36 minutes ago, at 13:20 UTC
Wind 7 kt from the North/Northeast, varying between Northwest and East
Temperature 18°C
Humidity 14%
Pressure 1019 hPa
Visibility 10 km or more
no clouds below 1500 m and no cumulonimbus

METAR: LTAC 241320Z 02007KT 310V080 CAVOK 18/M10 Q1019 NOSIG RMK RWY21L 00000KT RWY03L 35005KT 310V030 RWY21R 00000KT

Time: 16:56 (13:56 UTC)

Forecast

The report was made 3 hours and 16 minutes ago, at 10:40 UTC
Forecast valid from 24 at 12 UTC to 25 at 12 UTC
Wind 2 kt from variable directions
Visibility 10 km or more
no clouds below 1500 m and no cumulonimbus

TAF: LTAC 241040Z 2412/2512 VRB02KT CAVOK

Weather observations and forecasts of more than 4000 airports (METAR and TAF reports).

The available stations are represented by yellow and red dots on the map.

Hover mouse over dot to see the name of the station.

Then click to see weather observations and forecasts.

To change the map : click on the green buttons with a black cross to zoom in, on the green button with a dash to zoom out, or on the green arrows for adjacent maps.


METAR-TAF: